Jefferson, South Dakota
Current Conditions -  °F | °C
As of 2:52 PM on Tuesday 25 Nov 2014 (Local Time) from KSUX Reporting Station
Clear Clear  
Wind Chill: 36°   Ceiling: Unl
Heat Index: 42°   Visibility: 10mi
Dew Point: 25°   Wind: 10mph
Humidity: 51%   Direction: 170°S
Pressure: 29.94"   Gusts: NA
Location:  42.6°N, 96.56°W
Report Text: KSUX 252052Z 17009KT 10SM CLR 06/M04 A2994 RMK AO2 SLP153 T00561039 56033
Loading
Personal Weather Stations






























Interactive Weather Map New forecast layout! Learn more

10-Day Weather Forecast

Advertisements
Track Severe Weather on mobile